Lyndhurst, Virginia
Current Conditions -  °F | °C
As of 9:55 AM on Wednesday 26 Nov 2014 (Local Time) from KW13 Reporting Station
Overcast Overcast  
Wind Chill: 32°   Ceiling: 400
Heat Index: 32°   Visibility: 0.75mi
Dew Point: 32°   Wind: 3mph
Humidity: 100%   Direction: 340°NNW
Pressure: 30.01"   Gusts: NA
Location:  38.03°N, 78.95°W
Report Text: KW13 261455Z AUTO 34003KT 3/4SM OVC004 00/00 A3001 RMK AO1 60004 T00000000
Loading
Personal Weather Stations






























Interactive Weather Map New forecast layout! Learn more

10-Day Weather Forecast

Advertisements
Track Severe Weather on mobile